• Join FlightAware (Why Join?)
  • Login
  • US Flag 
01:56AM EDT


 

Airport Tracker/Info


-or-


 

Live Flight TrackerFlight Track Log ✈ ANA9397 ✈ 22-Aug-2013 ✈ KPAE - RJTT / HND

Flight Track Log - Related Links

Times and Time Zones

All times are in EDT time to prevent confusion due to time zone crossing. See the ANA9397 flight status page for this flight to view local times or setup timezone preferences in your user account.

Time Position Orientation Groundspeed Altitude Reporting Facility
EDT Latitude Longitude Course Direction KTS MPH feet Rate Location/Type
09:12PM 47.9300 -122.2860 359° North 168 193 1,500  Level FlightAware
09:12PM 47.9480 -122.2870 358° North 204 235 2,000 720 Climbing FlightAware
09:12PM 47.9670 -122.2870 360° North 232 267 2,000 360 Level FlightAware
09:13PM 48.0000 -122.2880 359° North 234 269 2,300 660 Climbing FlightAware
09:13PM 48.0130 -122.2940 343° North 252 290 2,500 1,320 Climbing FlightAware
09:13PM 48.0190 -122.3000 326° Northwest 258 297 2,700 2,460 Climbing FlightAware
09:13PM 48.0240 -122.3080 313° West 262 302 3,000 2,520 Climbing FlightAware
09:13PM 48.0310 -122.3280 298° West 266 306 3,500 2,460 Climbing FlightAware
09:14PM 48.0330 -122.3460 279° West 271 312 4,000 3,180 Climbing FlightAware
09:14PM 48.0210 -122.3880 247° West 271 312 5,200 3,360 Climbing FlightAware
09:14PM 48.0010 -122.4200 227° Southwest 271 312 6,500 3,240 Climbing FlightAware
09:15PM 47.9907 -122.4370 228° Southwest 273 314 7,100 2,880 Climbing FlightAware ADS-B
09:15PM 47.9774 -122.4580 227° Southwest 277 319 7,800 2,580 Climbing FlightAware ADS-B
09:15PM 47.9632 -122.4820 229° Southwest 282 325 8,500 1,800 Climbing FlightAware ADS-B
09:15PM 47.9435 -122.5140 227° Southwest 286 329 9,000 960 Climbing FlightAware ADS-B
09:16PM 47.9300 -122.5360 228° Southwest 287 330 9,100 180 Climbing FlightAware ADS-B
09:16PM 47.9139 -122.5620 227° Southwest 289 333 9,100  Level FlightAware ADS-B
09:16PM 47.8998 -122.5840 226° Southwest 289 333 9,100  Level FlightAware ADS-B
09:17PM 47.8813 -122.6140 227° Southwest 289 333 9,100  Level FlightAware ADS-B
09:17PM 47.8664 -122.6380 227° Southwest 288 331 9,100  Level FlightAware ADS-B
09:17PM 47.8528 -122.6610 229° Southwest 287 330 9,100  Level FlightAware ADS-B
09:17PM 47.8393 -122.6830 228° Southwest 285 328 9,100 180 Level FlightAware ADS-B
09:18PM 47.8257 -122.7050 227° Southwest 287 330 9,200 1,200 Climbing FlightAware ADS-B
09:18PM 47.8122 -122.7280 229° Southwest 288 331 9,700 2,220 Climbing FlightAware ADS-B
09:18PM 47.7978 -122.7520 228° Southwest 293 337 10,400 1,980 Climbing FlightAware ADS-B
09:18PM 47.7924 -122.7650 238° Southwest 302 348 10,500 1,080 Climbing FlightAware ADS-B
09:18PM 47.7900 -122.7730 246° West 306 352 10,600 1,500 Climbing FlightAware ADS-B
09:18PM 47.7879 -122.7810 249° West 311 358 10,700 1,500 Climbing FlightAware ADS-B
09:18PM 47.7865 -122.7890 255° West 316 364 10,800 1,500 Climbing FlightAware ADS-B
09:19PM 47.7856 -122.7980 262° West 321 369 10,900 720 Climbing FlightAware ADS-B
09:19PM 47.7855 -122.8050 269° West 324 373 10,900 720 Level FlightAware ADS-B
09:19PM 47.7859 -122.8140 274° West 329 379 11,000 1,740 Climbing FlightAware ADS-B
09:19PM 47.7953 -122.8830 281° West 350 403 11,900 2,220 Climbing FlightAware ADS-B
09:20PM 47.8076 -122.9660 282° West 357 411 13,400 2,640 Climbing FlightAware ADS-B
09:20PM 47.8184 -123.0400 282° West 363 418 14,800 2,640 Climbing FlightAware ADS-B
09:21PM 47.8291 -123.1140 282° West 370 426 16,100 2,460 Climbing FlightAware ADS-B
09:21PM 47.8396 -123.1890 282° West 375 432 17,300 2,580 Climbing FlightAware ADS-B
09:22PM 47.8505 -123.2660 282° West 379 436 18,700 2,820 Climbing FlightAware ADS-B
09:22PM 47.8622 -123.3490 282° West 375 432 20,300 2,580 Climbing FlightAware ADS-B
09:23PM 47.8732 -123.4270 282° West 379 436 21,500 2,280 Climbing FlightAware ADS-B
09:23PM 47.8768 -123.4480 284° West 383 441 21,800 2,520 Climbing FlightAware ADS-B
09:23PM 47.8832 -123.4770 288° West 386 444 22,300 2,220 Climbing FlightAware ADS-B
09:23PM 47.8923 -123.5090 293° West 391 450 22,700 2,040 Climbing FlightAware ADS-B
09:24PM 47.9187 -123.5800 299° West 397 457 23,800 1,920 Climbing FlightAware ADS-B
09:24PM 47.9456 -123.6530 299° West 404 465 24,700 1,860 Climbing FlightAware ADS-B
09:25PM 47.9730 -123.7270 299° West 409 471 25,700 1,980 Climbing FlightAware ADS-B
09:25PM 48.0005 -123.8010 299° West 414 476 26,700 1,680 Climbing FlightAware ADS-B
09:26PM 48.0285 -123.8770 299° West 426 490 27,400 1,080 Climbing FlightAware ADS-B
09:26PM 48.0582 -123.9590 298° West 447 514 27,800 1,140 Climbing FlightAware ADS-B
09:27PM 48.0884 -124.0410 299° West 455 524 28,600 1,560 Climbing FlightAware ADS-B
09:27PM 48.1191 -124.1250 299° West 462 532 29,400 1,560 Climbing FlightAware ADS-B
09:28PM 48.1501 -124.2100 299° West 469 540 30,200 1,320 Climbing FlightAware ADS-B
09:28PM 48.1873 -124.3130 298° West 478 550 30,900 1,320 Climbing FlightAware ADS-B
09:29PM 48.2213 -124.4070 299° West 486 559 31,700 1,440 Climbing FlightAware ADS-B
09:30PM 48.2645 -124.5000 305° West 491 565 32,500 1,320 Climbing FlightAware ADS-B
09:30PM 48.3314 -124.6090 313° West 505 581 33,400 1,200 Climbing FlightAware ADS-B
09:31PM 48.4290 -124.7690 313° West 515 593 34,700 1,380 Climbing FlightAware
09:32PM 48.4850 -124.8610 313° West 511 588 35,700 1,620 Climbing FlightAware
09:33PM 48.5410 -124.9520 313° West 508 585 36,600 1,320 Climbing FlightAware
09:33PM 48.5940 -125.0400 312° West 508 585 37,300 1,080 Climbing FlightAware
09:34PM 48.6520 -125.1360 312° West 510 587 37,900 1,260 Climbing FlightAware
09:34PM 48.7080 -125.2280 313° West 502 578 38,800 1,080 Climbing FlightAware
09:35PM 48.7610 -125.3170 312° West 505 581 39,200 660 Climbing FlightAware
09:35PM 48.8160 -125.4080 313° West 509 586 39,600 660 Climbing FlightAware
09:36PM 48.8710 -125.5020 312° West 511 588 40,000 300 Climbing FlightAware
09:37PM 48.9220 -125.5870 312° West 508 585 40,000  Level FlightAware
09:37PM 48.9820 -125.6890 312° West 508 585 40,000  Level FlightAware
09:38PM 49.0360 -125.7800 312° West 507 583 40,000  Level FlightAware
09:38PM 49.0930 -125.8770 312° West 507 583 40,000  Level FlightAware
09:39PM 49.1480 -125.9720 312° West 506 582 40,000  Level FlightAware
09:40PM 49.2060 -126.0700 312° West 506 582 40,000  Level FlightAware
09:40PM 49.2550 -126.1550 311° West 505 581 40,000  Level FlightAware
09:41PM 49.3100 -126.2500 312° West 502 578 40,000  Level FlightAware
09:41PM 49.3670 -126.3490 312° West 500 575 40,000  Level FlightAware
09:42PM 49.4180 -126.4370 312° West 501 577 40,000  Level FlightAware
09:42PM 49.4720 -126.5320 311° West 500 575 40,000  Level FlightAware
09:43PM 49.5270 -126.6290 311° West 501 577 40,000  Level FlightAware
09:44PM 49.5760 -126.7160 311° West 503 579 40,000  Level FlightAware
09:44PM 49.6260 -126.8030 312° West 497 572 40,000  Level FlightAware
09:45PM 49.6790 -126.8970 311° West 498 573 40,000  Level FlightAware
09:45PM 49.7240 -126.9770 311° West 496 571 40,000  Level FlightAware
09:46PM 49.7920 -127.0980 311° West 498 573 40,000  Level FlightAware
09:47PM 49.8470 -127.1960 311° West 498 573 40,000  Level FlightAware
09:47PM 49.9280 -127.3430 311° West 498 573 40,000  Level FlightAware
09:48PM 49.9810 -127.4390 311° West 498 573 40,000  Level FlightAware
09:49PM 50.0230 -127.5150 311° West 502 578 40,000  Level FlightAware
09:49PM 50.0780 -127.6140 311° West 503 579 40,000  Level FlightAware
09:50PM 50.1450 -127.7370 310° West 500 575 40,000  Level FlightAware
09:50PM 50.1990 -127.8360 310° West 498 573 40,000  Level FlightAware
09:51PM 50.2590 -127.9470 310° West 499 574 40,000  Level FlightAware
09:52PM 50.3150 -128.0500 310° West 497 572 40,000  Level FlightAware
09:52PM 50.3670 -128.1470 310° West 496 571 40,000  Level FlightAware
09:53PM 50.4300 -128.2670 310° West 495 570 40,000  Level FlightAware
09:54PM 50.4740 -128.3520 309° West 495 570 40,000  Level FlightAware
09:54PM 50.5180 -128.4380 309° West 495 570 40,000  Level FlightAware
09:55PM 50.5620 -128.5240 309° West 495 570 40,000  Level FlightAware
09:56PM 50.6070 -128.6100 310° West 495 570 40,000  Level FlightAware
09:56PM 50.6510 -128.6950 309° West 495 570 40,000  Level FlightAware
09:57PM 50.6950 -128.7810 309° West 495 570 40,000  Level FlightAware
09:57PM 50.7410 -128.8720 309° West 495 570 40,000  Level FlightAware
09:58PM 50.7850 -128.9580 309° West 495 570 40,000  Level FlightAware
09:59PM 50.8310 -129.0470 309° West 495 570 40,000  Level FlightAware
09:59PM 50.8740 -129.1310 309° West 495 570 40,000  Level FlightAware
10:00PM 50.9180 -129.2170 309° West 495 570 40,000  Level FlightAware
10:00PM 50.9630 -129.3060 309° West 495 570 40,000  Level FlightAware
10:01PM 51.0070 -129.3920 309° West 495 570 40,000  Level FlightAware
10:02PM 51.0520 -129.4820 309° West 495 570 40,000  Level FlightAware
10:02PM 51.0970 -129.5680 310° West 495 570 40,000  Level FlightAware
10:04PM 51.3333 -130.0333 310° West 500 575 40,000  Level Vancouver Center
10:05PM 51.4167 -130.2333 304° West 500 575 40,000  Level Vancouver Center
10:06PM 51.5000 -130.3667 315° West 500 575 40,000  Level Vancouver Center
10:07PM 51.5833 -130.5833 302° West 490 564 40,000  Level Vancouver Center
10:08PM 51.6500 -130.7167 309° West 490 564 40,000  Level Vancouver Center
10:09PM 51.7500 -130.9000 311° West 490 564 40,000  Level Vancouver Center
10:10PM 51.8333 -131.0667 309° West 490 564 40,000  Level Vancouver Center
10:11PM 51.9167 -131.2833 302° West 490 564 40,000  Level Vancouver Center
10:12PM 52.0000 -131.4333 312° West 490 564 40,000  Level Vancouver Center
10:13PM 52.0833 -131.6333 304° West 490 564 40,000  Level Vancouver Center
10:14PM 52.1667 -131.7833 312° West 500 575 40,000  Level Vancouver Center
10:15PM 52.2500 -131.9667 307° West 500 575 40,000  Level Vancouver Center
10:16PM 52.3333 -132.1667 304° West 500 575 40,000  Level Vancouver Center
10:17PM 52.4167 -132.3167 312° West 500 575 40,000  Level Vancouver Center
10:18PM 52.5000 -132.5333 302° West 500 575 40,000  Level Vancouver Center
10:19PM 52.5833 -132.7167 307° West 500 575 40,000  Level Vancouver Center
10:20PM 52.6500 -132.8667 306° West 500 575 40,000  Level Vancouver Center
10:21PM 52.7333 -133.0833 302° West 500 575 40,000  Level Vancouver Center
10:22PM 52.8167 -133.2667 307° West 500 575 40,000  Level Vancouver Center
10:23PM 52.9167 -133.4500 312° West 500 575 40,000  Level Vancouver Center
10:24PM 52.9833 -133.6333 301° West 500 575 40,000  Level Vancouver Center
10:25PM 53.0667 -133.8167 307° West 500 575 40,000  Level Vancouver Center
10:26PM 53.1500 -134.0000 307° West 500 575 40,000  Level Vancouver Center
10:27PM 53.2167 -134.1833 301° West 500 575 40,000  Level Vancouver Center
10:28PM 53.3000 -134.3833 305° West 500 575 40,000  Level Vancouver Center
10:29PM 53.3833 -134.5667 307° West 500 575 40,000  Level Vancouver Center
10:30PM 53.4667 -134.7667 305° West 500 575 40,000  Level Vancouver Center
10:31PM 53.5333 -134.9500 302° West 500 575 40,000  Level Vancouver Center
10:32PM 53.6167 -135.1333 308° West 500 575 40,000  Level Vancouver Center
10:33PM 53.7000 -135.3333 305° West 500 575 40,000  Level Vancouver Center
10:33PM 53.7667 -135.4500 314° West 500 575 40,000  Level Anchorage Center
10:34PM 53.8500 -135.6333 308° West 490 564 40,000  Level Anchorage Center
10:35PM 53.9333 -135.8333 305° West 490 564 40,000  Level Anchorage Center
10:36PM 54.0000 -136.0167 302° West 490 564 40,000  Level Anchorage Center
10:37PM 54.0667 -136.2333 298° West 490 564 40,000  Level Anchorage Center
10:38PM 54.1333 -136.4333 300° West 490 564 40,000  Level Anchorage Center
10:39PM 54.1833 -136.6167 295° West 490 564 40,000  Level Anchorage Center
10:40PM 54.2500 -136.8167 300° West 490 564 40,000  Level Anchorage Center
10:41PM 54.3167 -137.0333 298° West 490 564 40,000  Level Anchorage Center
10:42PM 54.3833 -137.2333 300° West 480 552 40,000  Level Anchorage Center
10:43PM 54.4500 -137.4333 300° West 490 564 40,000  Level Anchorage Center
10:44PM 54.5000 -137.6500 292° West 480 552 40,000  Level Anchorage Center
10:45PM 54.5667 -137.8500 300° West 480 552 40,000  Level Anchorage Center
10:46PM 54.6333 -138.0500 300° West 470 541 40,000  Level Anchorage Center
10:47PM 54.6833 -138.2500 293° West 470 541 40,000  Level Anchorage Center
10:48PM 54.7500 -138.4667 298° West 480 552 40,000  Level Anchorage Center
10:50PM 54.8167 -138.6667 300° West 480 552 40,000  Level Anchorage Center
10:51PM 54.8667 -138.8667 294° West 470 541 40,000  Level Anchorage Center
10:51PM 54.9333 -139.0833 298° West 480 552 40,000  Level Anchorage Center
10:53PM 54.9833 -139.2833 294° West 480 552 40,000  Level Anchorage Center
10:54PM 55.0500 -139.5000 298° West 480 552 40,000  Level Anchorage Center
10:55PM 55.1000 -139.7167 292° West 480 552 40,000  Level Anchorage Center
10:56PM 55.1667 -139.9167 300° West 480 552 40,000  Level Anchorage Center
10:57PM 55.2167 -140.1333 292° West 460 529 40,000  Level Anchorage Center
10:58PM 55.2833 -140.3500 298° West 480 552 40,000  Level Anchorage Center
10:59PM 55.3333 -140.5500 294° West 490 564 40,000  Level Anchorage Center
11:00PM 55.4000 -140.7667 299° West 480 552 40,000  Level Anchorage Center
11:01PM 55.4500 -140.9833 292° West 470 541 40,000  Level Anchorage Center
11:02PM 55.5000 -141.2000 292° West 480 552 40,000  Level Anchorage Center
11:03PM 55.5667 -141.4167 299° West 470 541 40,000  Level Anchorage Center
11:04PM 55.6167 -141.6167 294° West 470 541 40,000  Level Anchorage Center
11:05PM 55.6667 -141.8333 292° West 470 541 40,000  Level Anchorage Center
11:06PM 55.7167 -142.0500 292° West 480 552 40,000  Level Anchorage Center
11:07PM 55.7833 -142.2500 301° West 480 552 40,000  Level Anchorage Center
11:08PM 55.8333 -142.4667 292° West 470 541 40,000  Level Anchorage Center
11:09PM 55.8833 -142.6667 294° West 460 529 40,000  Level Anchorage Center
11:10PM 55.9333 -142.8833 292° West 470 541 40,000  Level Anchorage Center
11:11PM 55.9833 -143.1167 291° West 470 541 40,000  Level Anchorage Center
11:12PM 56.0333 -143.3167 294° West 470 541 40,000  Level Anchorage Center
11:13PM 56.0833 -143.5333 293° West 460 529 40,000  Level Anchorage Center
11:14PM 56.1333 -143.7500 293° West 460 529 40,000  Level Anchorage Center
11:15PM 56.1833 -143.9667 293° West 470 541 40,000  Level Anchorage Center
11:16PM 56.2333 -144.1833 293° West 460 529 40,000  Level Anchorage Center
11:17PM 56.2833 -144.3833 294° West 450 518 40,000  Level Anchorage Center
11:18PM 56.3333 -144.6167 291° West 470 541 40,000  Level Anchorage Center
11:19PM 56.3667 -144.8333 286° West 460 529 40,000  Level Anchorage Center
11:20PM 56.4167 -145.0500 293° West 460 529 40,000  Level Anchorage Center
11:21PM 56.4667 -145.2667 293° West 450 518 40,000  Level Anchorage Center
11:22PM 56.5167 -145.4667 294° West 450 518 40,000  Level Anchorage Center
11:23PM 56.5500 -145.6833 286° West 450 518 40,000  Level Anchorage Center
11:24PM 56.6000 -145.9000 293° West 450 518 40,000  Level Anchorage Center
11:25PM 56.6500 -146.1167 293° West 450 518 40,000  Level Anchorage Center
11:26PM 56.6833 -146.3333 286° West 440 506 40,000  Level Anchorage Center
11:27PM 56.7333 -146.5333 295° West 440 506 40,000  Level Anchorage Center
11:28PM 56.7667 -146.7500 286° West 440 506 40,000  Level Anchorage Center
11:29PM 56.8167 -146.9667 293° West 430 495 40,000  Level Anchorage Center
11:30PM 56.8500 -147.1667 287° West 440 506 40,000  Level Anchorage Center
11:31PM 56.9000 -147.3833 293° West 440 506 40,000  Level Anchorage Center
11:32PM 56.9333 -147.6000 286° West 440 506 40,000  Level Anchorage Center
11:33PM 56.9833 -147.8000 295° West 430 495 40,000  Level Anchorage Center
11:34PM 57.0167 -148.0167 286° West 420 483 40,000  Level Anchorage Center
11:36PM 57.1000 -148.4167 291° West 420 483 40,000  Level Anchorage Center
11:37PM 57.1333 -148.6333 286° West 430 495 40,000  Level Anchorage Center
11:38PM 57.1667 -148.8500 286° West 430 495 40,000  Level Anchorage Center
11:39PM 57.2000 -149.0500 287° West 420 483 40,000  Level Anchorage Center
11:40PM 57.2500 -149.2667 293° West 430 495 40,000  Level Anchorage Center
11:41PM 57.2833 -149.4667 287° West 420 483 40,000  Level Anchorage Center
11:42PM 57.3167 -149.6833 286° West 420 483 40,000  Level Anchorage Center
11:43PM 57.3500 -149.9000 286° West 430 495 40,000  Level Anchorage Center
11:44PM 57.3833 -150.1000 287° West 420 483 40,000  Level Anchorage Center
11:45PM 57.4167 -150.3167 286° West 430 495 40,000  Level Anchorage Center
11:46PM 57.4500 -150.5333 286° West 420 483 40,000  Level Anchorage Center
11:47PM 57.4833 -150.7500 286° West 420 483 40,000  Level Anchorage Center
11:48PM 57.5167 -150.9500 287° West 420 483 40,000  Level Anchorage Center
11:49PM 57.5500 -151.1667 286° West 420 483 40,000  Level Anchorage Center
11:50PM 57.5833 -151.3667 287° West 410 472 40,000  Level Anchorage Center
11:51PM 57.6167 -151.5833 286° West 430 495 40,000  Level Anchorage Center
11:52PM 57.6333 -151.8000 278° West 430 495 40,000  Level Anchorage Center
11:53PM 57.6667 -152.0167 286° West 420 483 40,000  Level Anchorage Center
11:54PM 57.7000 -152.2167 287° West 420 483 40,000  Level Anchorage Center
11:55PM 57.7333 -152.4333 286° West 410 472 40,000  Level Anchorage Center
11:56PM 57.7667 -152.6500 286° West 410 472 40,000  Level Anchorage Center
11:57PM 57.7833 -152.8500 279° West 410 472 40,000  Level Anchorage Center
11:58PM 57.8167 -153.0500 287° West 400 460 40,000  Level Anchorage Center
11:59PM 57.8333 -153.2667 278° West 410 472 40,000  Level Anchorage Center
12:00AM 57.8667 -153.4667 287° West 400 460 40,000  Level Anchorage Center
12:01AM 57.9000 -153.6833 286° West 410 472 40,000  Level Anchorage Center
12:02AM 57.9167 -153.9000 278° West 410 472 40,000  Level Anchorage Center
12:03AM 57.9500 -154.1000 288° West 410 472 40,000  Level Anchorage Center
12:04AM 57.9667 -154.3167 278° West 410 472 40,000  Level Anchorage Center
12:05AM 58.0000 -154.5333 286° West 400 460 40,000  Level Anchorage Center
12:06AM 58.0167 -154.7333 279° West 410 472 40,000  Level Anchorage Center
12:08AM 58.0667 -155.1667 282° West 410 472 40,000  Level Anchorage Center
12:09AM 58.1000 -155.3833 286° West 410 472 40,000  Level Anchorage Center
12:10AM 58.1167 -155.5833 279° West 410 472 40,000  Level Anchorage Center
12:11AM 58.1333 -155.8000 278° West 400 460 40,000  Level Anchorage Center
12:12AM 58.1667 -156.0167 286° West 410 472 40,000  Level Anchorage Center
12:13AM 58.1833 -156.2333 278° West 410 472 40,000  Level Anchorage Center
12:14AM 58.2000 -156.4500 278° West 410 472 40,000  Level Anchorage Center
12:15AM 58.2333 -156.6667 286° West 410 472 40,000  Level Anchorage Center
12:16AM 58.2500 -156.8833 278° West 410 472 40,000  Level Anchorage Center
12:17AM 58.2667 -157.1000 278° West 410 472 40,000  Level Anchorage Center
12:18AM 58.3000 -157.3167 286° West 420 483 40,000  Level Anchorage Center
12:19AM 58.3167 -157.5333 278° West 410 472 40,000  Level Anchorage Center
12:20AM 58.3333 -157.7667 278° West 410 472 40,000  Level Anchorage Center
12:21AM 58.3500 -157.9833 278° West 410 472 40,000  Level Anchorage Center
12:22AM 58.3667 -158.2000 278° West 410 472 40,000  Level Anchorage Center
12:23AM 58.3833 -158.4167 278° West 410 472 40,000  Level Anchorage Center
12:24AM 58.4167 -158.6333 286° West 410 472 40,000  Level Anchorage Center
12:25AM 58.4333 -158.8500 278° West 410 472 40,000  Level Anchorage Center
12:26AM 58.4500 -159.0667 278° West 410 472 40,000  Level Anchorage Center
12:27AM 58.4667 -159.2833 278° West 410 472 40,000  Level Anchorage Center
12:28AM 58.4833 -159.5000 278° West 410 472 40,000  Level Anchorage Center
12:29AM 58.5000 -159.7000 279° West 410 472 40,000  Level Anchorage Center
12:30AM 58.5167 -159.9167 278° West 410 472 40,000  Level Anchorage Center
12:31AM 58.5333 -160.1333 278° West 400 460 40,000  Level Anchorage Center
12:32AM 58.5500 -160.3500 278° West 410 472 40,000  Level Anchorage Center
12:33AM 58.5500 -160.5667 270° West 410 472 40,000  Level Anchorage Center
12:34AM 58.5667 -160.7833 278° West 410 472 40,000  Level Anchorage Center
12:35AM 58.5833 -161.0000 278° West 410 472 40,000  Level Anchorage Center
12:36AM 58.6000 -161.2167 278° West 410 472 40,000  Level Anchorage Center
12:37AM 58.6167 -161.4333 278° West 410 472 40,000  Level Anchorage Center
12:38AM 58.6333 -161.6500 278° West 380 437 40,000  Level Anchorage Center
12:39AM 58.6333 -161.8500 270° West 400 460 40,000  Level Anchorage Center
12:40AM 58.6500 -162.1000 277° West 410 472 40,000  Level Anchorage Center
12:41AM 58.6667 -162.3167 279° West 400 460 40,000  Level Anchorage Center
12:42AM 58.6667 -162.5333 270° West 390 449 40,000  Level Anchorage Center
12:43AM 58.6833 -162.7667 278° West 400 460 40,000  Level Anchorage Center
12:44AM 58.6833 -162.9333 270° West 410 472 40,000  Level Anchorage Center
12:45AM 58.7000 -163.1500 279° West 400 460 40,000  Level Anchorage Center
12:46AM 58.7000 -163.4167 270° West 400 460 40,000  Level Anchorage Center
12:47AM 58.7167 -163.6333 279° West 410 472 40,000  Level Anchorage Center
12:48AM 58.7167 -163.8500 270° West 400 460 40,000  Level Anchorage Center
12:49AM 58.7333 -164.0667 279° West 400 460 40,000  Level Anchorage Center
12:50AM 58.7333 -164.2833 270° West 410 472 40,000  Level Anchorage Center
12:51AM 58.7500 -164.5167 278° West 410 472 40,000  Level Anchorage Center
12:52AM 58.7500 -164.6833 270° West 410 472 40,000  Level Anchorage Center
12:53AM 58.7500 -164.9000 270° West 410 472 40,000  Level Anchorage Center
12:54AM 58.7667 -165.1167 279° West 400 460 40,000  Level Anchorage Center
12:55AM 58.7667 -165.3500 270° West 410 472 40,000  Level Anchorage Center
12:56AM 58.7667 -165.5667 270° West 410 472 40,000  Level Anchorage Center
12:57AM 58.7667 -165.7833 270° West 410 472 40,000  Level Anchorage Center
12:58AM 58.7833 -166.0000 279° West 410 472 40,000  Level Anchorage Center
12:59AM 58.7833 -166.2167 270° West 410 472 40,000  Level Anchorage Center
01:00AM 58.7833 -166.4500 270° West 410 472 40,000  Level Anchorage Center
01:01AM 58.7833 -166.6667 270° West 410 472 40,000  Level Anchorage Center
01:02AM 58.8000 -166.8667 279° West 410 472 40,000  Level Anchorage Center
01:03AM 58.7833 -167.0833 262° West 390 449 40,000  Level Anchorage Center
01:04AM 58.8000 -167.3000 279° West 410 472 40,000  Level Anchorage Center
01:06AM 58.8002 -167.7603 271° West  Level FlightAware Approximate
01:10AM 58.8000 -168.6167 269° West 410 472 40,000  Level Anchorage Center
01:11AM 58.8000 -168.8333 270° West 400 460 40,000  Level Anchorage Center
01:12AM 58.8000 -169.0667 270° West 430 495 40,000  Level Anchorage Center
01:13AM 58.7969 -169.3983 270° West  Level FlightAware Approximate
01:13AM 58.8000 -169.2667 270° West 390 449 40,000  Level Anchorage Center
01:14AM 58.7948 -169.6322 269° West  Level FlightAware Approximate
01:14AM 58.8000 -169.5000 270° West 410 472 40,000  Level Anchorage Center
01:15AM 58.7922 -169.8661 269° West  Level FlightAware Approximate
01:15AM 58.7833 -169.7167 262° West 410 472 40,000  Level Anchorage Center
01:16AM 58.7892 -170.1000 269° West  Level FlightAware Approximate
01:16AM 58.7833 -169.9333 270° West 410 472 40,000  Level Anchorage Center
01:17AM 58.7833 -170.1500 270° West 410 472 40,000  Level Anchorage Center
01:18AM 58.7833 -170.3833 270° West 410 472 40,000  Level Anchorage Center
01:19AM 58.7667 -170.6000 262° West 400 460 40,000  Level Anchorage Center
01:20AM 58.7667 -170.8167 270° West 410 472 40,000  Level Anchorage Center
01:21AM 58.7667 -171.0500 270° West 410 472 40,000  Level Anchorage Center
01:22AM 58.7667 -171.2667 270° West 410 472 40,000  Level Anchorage Center
01:23AM 58.7500 -171.4833 262° West 400 460 40,000  Level Anchorage Center
01:24AM 58.7333 -171.7000 262° West 400 460 40,000  Level Anchorage Center
01:25AM 58.7333 -171.9167 270° West 410 472 40,000  Level Anchorage Center
01:26AM 58.7167 -172.1500 262° West 410 472 40,000  Level Anchorage Center
01:27AM 58.7167 -172.3667 270° West 410 472 40,000  Level Anchorage Center
01:28AM 58.7000 -172.5833 262° West 410 472 40,000  Level Anchorage Center
01:29AM 58.6833 -172.8000 262° West 420 483 40,000  Level Anchorage Center
01:30AM 58.6667 -173.0333 262° West 410 472 40,000  Level Anchorage Center
01:31AM 58.6667 -173.2500 270° West 410 472 40,000  Level Anchorage Center
01:32AM 58.6500 -173.4667 262° West 420 483 40,000  Level Anchorage Center
01:33AM 58.6333 -173.7000 262° West 410 472 40,000  Level Anchorage Center
01:34AM 58.6167 -173.9167 262° West 410 472 40,000  Level Anchorage Center
01:35AM 58.6000 -174.1500 262° West 430 495 40,000  Level Anchorage Center
01:36AM 58.5833 -174.3667 262° West 420 483 40,000  Level Anchorage Center
01:37AM 58.5667 -174.5833 262° West 410 472 40,000  Level Anchorage Center
01:38AM 58.5667 -174.8000 270° West 410 472 40,000  Level Anchorage Center
01:39AM 58.5500 -175.0167 262° West 420 483 40,000  Level Anchorage Center
01:40AM 58.5333 -175.2500 262° West 410 472 40,000  Level Anchorage Center
01:41AM 58.5167 -175.4667 262° West 410 472 40,000  Level Anchorage Center
01:42AM 58.5000 -175.6833 262° West 420 483 40,000  Level Anchorage Center
01:43AM 58.4667 -175.9000 254° West 420 483 40,000  Level Anchorage Center
01:44AM 58.4500 -176.1167 262° West 410 472 40,000  Level Anchorage Center
01:45AM 58.4333 -176.3500 262° West 420 483 40,000  Level Anchorage Center
01:46AM 58.4167 -176.5667 262° West 420 483 40,000  Level Anchorage Center
01:47AM 58.4000 -176.7833 262° West 420 483 40,000  Level Anchorage Center
01:48AM 58.3833 -177.0000 262° West 420 483 40,000  Level Anchorage Center
01:49AM 58.3500 -177.1833 251° West 410 472 40,000 60 Level Anchorage Center
01:51AM 58.2513 -177.5792 245° Southwest  Level FlightAware Approximate
01:56AM 58.0000 -178.6000 243° Southwest 428 493 40,500  Level Anchorage Center
01:58AM 57.8773 -179.0185 244° Southwest  Level FlightAware Approximate
01:59AM 57.8225 -179.2216 243° Southwest  Level FlightAware Approximate
02:00AM 57.7675 -179.4241 243° Southwest  Level FlightAware Approximate
02:01AM 57.7121 -179.6261 243° Southwest  Level FlightAware Approximate
02:02AM 57.6775 -179.7873 242° Southwest 428 493 40,500  Level FlightAware Transoceanic
02:03AM 57.6227 -179.9831 242° Southwest 428 493 40,500  Level FlightAware Transoceanic
02:04AM 57.5675 179.8217 242° Southwest 428 493 40,500  Level FlightAware Transoceanic
02:05AM 57.5121 179.6270 242° Southwest 428 493 40,500  Level FlightAware Transoceanic
02:06AM 57.4564 179.4330 242° Southwest 428 493 40,500  Level FlightAware Transoceanic
02:07AM 57.4004 179.2396 242° Southwest 428 493 40,500  Level FlightAware Transoceanic
02:08AM 57.3441 179.0467 241° Southwest 428 493 40,500  Level FlightAware Transoceanic
02:09AM 57.2874 178.8544 241° Southwest 428 493 40,500  Level FlightAware Transoceanic
02:10AM 57.2305 178.6628 241° Southwest 428 493 40,500  Level FlightAware Transoceanic
02:11AM 57.1734 178.4717 241° Southwest 428 493 40,500  Level FlightAware Transoceanic
02:12AM 57.1159 178.2812 241° Southwest 428 493 40,500  Level FlightAware Transoceanic
02:13AM 57.0581 178.0913 241° Southwest 428 493 40,500  Level FlightAware Transoceanic
02:14AM 57.0000 177.9020 241° Southwest 428 493 40,500  Level FlightAware Transoceanic
02:15AM 56.9417 177.7133 240° Southwest 428 493 40,500  Level FlightAware Transoceanic
02:16AM 56.8831 177.5252 240° Southwest 428 493 40,500 240 Level FlightAware Transoceanic
02:16AM 56.8333 177.3500 240° Southwest 433 498 41,000  Climbing Anchorage Center
02:17AM 56.8242 177.3376 240° Southwest 428 493 40,500 -480 Descending FlightAware Transoceanic
02:18AM 56.7650 177.1507 240° Southwest 428 493 40,500  Level FlightAware Transoceanic
02:19AM 56.7055 176.9644 240° Southwest 428 493 40,500  Level FlightAware Transoceanic
02:20AM 56.6458 176.7786 240° Southwest 428 493 40,500  Level FlightAware Transoceanic
02:21AM 56.5858 176.5934 239° Southwest 428 493 40,500  Level FlightAware Transoceanic
02:22AM 56.5255 176.4088 239° Southwest 428 493 40,500 240 Level FlightAware Transoceanic
02:23AM 56.4597 176.1963 239° Southwest 433 498 41,000 420 Climbing FlightAware Transoceanic
02:23AM 56.4333 176.1500 238° Southwest 450 518 41,000  Level Anchorage Center
02:24AM 56.3964 176.0063 239° Southwest 433 498 41,000  Level FlightAware Transoceanic
02:24AM 56.3667 175.9500 239° Southwest 440 506 41,000  Level Anchorage Center
02:25AM 56.3328 175.8168 239° Southwest 433 498 41,000  Level FlightAware Transoceanic
02:26AM 56.2689 175.6281 239° Southwest 433 498 41,000  Level FlightAware Transoceanic
02:26AM 56.2500 175.5833 240° Southwest 440 506 41,000  Level Anchorage Center
02:27AM 56.2048 175.4399 238° Southwest 433 498 41,000  Level FlightAware Transoceanic
02:27AM 56.1667 175.3833 233° Southwest 430 495 41,000  Level Anchorage Center
02:28AM 56.1403 175.2524 238° Southwest 433 498 41,000  Level FlightAware Transoceanic
02:28AM 56.1167 175.2167 242° Southwest 440 506 41,000  Level Anchorage Center
02:29AM 56.0500 175.0167 239° Southwest 440 506 41,000  Level Anchorage Center
02:30AM 56.0000 174.8500 242° Southwest 440 506 41,000  Level Anchorage Center
02:31AM 55.9167 174.6500 233° Southwest 440 506 41,000  Level Anchorage Center
02:32AM 55.8667 174.5000 239° Southwest 440 506 41,000  Level Anchorage Center
02:33AM 55.8000 174.3000 239° Southwest 440 506 41,000  Level Anchorage Center
02:34AM 55.7167 174.1000 234° Southwest 440 506 41,000  Level Anchorage Center
02:35AM 55.6667 173.9333 242° Southwest 440 506 41,000  Level Anchorage Center
02:36AM 55.6000 173.7333 240° Southwest 440 506 41,000  Level Anchorage Center
02:37AM 55.5333 173.5833 232° Southwest 440 506 41,000  Level Anchorage Center
02:38AM 55.4667 173.3833 240° Southwest 440 506 41,000  Level Anchorage Center
02:39AM 55.4000 173.2333 232° Southwest 440 506 41,000  Level Anchorage Center
02:40AM 55.3333 173.0333 240° Southwest 450 518 41,000  Level Anchorage Center
02:41AM 55.2500 172.8333 234° Southwest 440 506 41,000  Level Anchorage Center
02:42AM 55.2000 172.6833 240° Southwest 440 506 41,000  Level Anchorage Center
02:43AM 55.1167 172.5000 232° Southwest 430 495 41,000  Level Anchorage Center
02:44AM 55.0667 172.3333 242° Southwest 450 518 41,000  Level Anchorage Center
02:45AM 54.9833 172.1500 232° Southwest 430 495 41,000  Level Anchorage Center
02:46AM 54.9333 172.0000 240° Southwest 430 495 41,000  Level Anchorage Center
02:47AM 54.8500 171.8000 234° Southwest 440 506 41,000  Level Anchorage Center
02:48AM 54.7667 171.6167 232° Southwest 440 506 41,000  Level Anchorage Center
02:49AM 54.7167 171.4667 240° Southwest 440 506 41,000  Level Anchorage Center
02:50AM 54.6333 171.2833 232° Southwest 440 506 41,000  Level Anchorage Center
02:51AM 54.5667 171.1167 235° Southwest 460 529 41,000  Level Anchorage Center
02:52AM 54.5000 170.9500 235° Southwest 430 495 41,000  Level Anchorage Center
02:53AM 54.4333 170.8000 233° Southwest 430 495 41,000  Level Anchorage Center
02:54AM 54.3500 170.6167 232° Southwest 440 506 41,000  Level Anchorage Center
02:55AM 54.2667 170.4167 235° Southwest 460 529 41,000  Level Anchorage Center
02:56AM 54.2167 170.2833 237° Southwest 430 495 41,000  Level Anchorage Center
02:57AM 54.1333 170.1000 232° Southwest 450 518 41,000  Level Anchorage Center
02:58AM 54.0667 169.9500 233° Southwest 440 506 41,000  Level Anchorage Center
02:59AM 53.9833 169.7833 230° Southwest 440 506 41,000  Level Anchorage Center
03:00AM 53.9167 169.6333 233° Southwest 420 483 41,000  Level Anchorage Center
03:01AM 53.8500 169.4500 238° Southwest 450 518 41,000  Level Anchorage Center
03:02AM 53.7833 169.3167 230° Southwest 440 506 41,000  Level Anchorage Center
03:04AM 53.6333 168.9333 237° Southwest 450 518 41,000  Level Anchorage Center
03:05AM 53.5833 168.7667 243° Southwest 440 506 41,000  Level Anchorage Center
03:06AM 53.5167 168.5667 241° Southwest 460 529 41,000  Level Anchorage Center
03:07AM 53.4667 168.4167 241° Southwest 450 518 41,000  Level Anchorage Center
03:09AM 53.3500 168.0333 243° Southwest 400 460 41,000  Level Anchorage Center
03:11AM 53.2494 167.7506 239° Southwest  Level FlightAware Approximate
03:16AM 52.9167 166.8833 239° Southwest 443 510 41,000  Level Anchorage Center
03:18AM 52.8064 166.5416 239° Southwest  Level FlightAware Approximate
03:19AM 52.7421 166.3709 238° Southwest  Level FlightAware Approximate
03:20AM 52.6776 166.2007 238° Southwest  Level FlightAware Approximate
03:21AM 52.6128 166.0310 238° Southwest  Level FlightAware Approximate
03:22AM 52.5188 165.8173 238° Southwest 443 510 41,000  Level FlightAware Transoceanic
03:23AM 52.4515 165.6416 238° Southwest 443 510 41,000  Level FlightAware Transoceanic
03:24AM 52.3840 165.4663 238° Southwest 443 510 41,000  Level FlightAware Transoceanic
03:25AM 52.3163 165.2916 238° Southwest 443 510 41,000  Level FlightAware Transoceanic
03:26AM 52.2483 165.1174 237° Southwest 443 510 41,000  Level FlightAware Transoceanic
03:27AM 52.1800 164.9438 237° Southwest 443 510 41,000  Level FlightAware Transoceanic
03:28AM 52.1115 164.7707 237° Southwest 443 510 41,000  Level FlightAware Transoceanic
03:29AM 52.0427 164.5981 237° Southwest 443 510 41,000  Level FlightAware Transoceanic
03:30AM 51.9737 164.4261 237° Southwest 443 510 41,000  Level FlightAware Transoceanic
03:31AM 51.9044 164.2546 237° Southwest 443 510 41,000  Level FlightAware Transoceanic
03:32AM 51.8349 164.0836 237° Southwest 443 510 41,000  Level FlightAware Transoceanic
03:33AM 51.7651 163.9132 236° Southwest 443 510 41,000  Level FlightAware Transoceanic
03:34AM 51.6951 163.7432 236° Southwest 443 510 41,000  Level FlightAware Transoceanic
03:35AM 51.6249 163.5738 236° Southwest 443 510 41,000  Level FlightAware Transoceanic
03:35AM 51.6500 163.6500 236° Southwest 449 517 41,000  Level Anchorage Center
03:36AM 51.5543 163.4050 236° Southwest 443 510 41,000  Level FlightAware Transoceanic
03:37AM 51.4836 163.2366 236° Southwest 443 510 41,000  Level FlightAware Transoceanic
03:38AM 51.4126 163.0688 236° Southwest 443 510 41,000  Level FlightAware Transoceanic
03:39AM 51.3414 162.9015 236° Southwest 443 510 41,000  Level FlightAware Transoceanic
03:40AM 51.2699 162.7347 236° Southwest 443 510 41,000  Level FlightAware Transoceanic
03:41AM 51.2181 162.6260 236° Southwest 449 517 41,000  Level FlightAware Transoceanic
03:42AM 51.1452 162.4572 235° Southwest 449 517 41,000  Level FlightAware Transoceanic
03:42AM 51.1167 162.3667 235° Southwest 453 521 41,000  Level Anchorage Center
03:43AM 51.0721 162.2890 235° Southwest 449 517 41,000  Level FlightAware Transoceanic
03:44AM 50.9988 162.1213 235° Southwest 449 517 41,000  Level FlightAware Transoceanic
03:45AM 50.9252 161.9541 235° Southwest 449 517 41,000  Level FlightAware Transoceanic
03:46AM 50.8514 161.7874 235° Southwest 449 517 41,000  Level FlightAware Transoceanic
03:47AM 50.7774 161.6213 235° Southwest 449 517 41,000  Level FlightAware Transoceanic
03:48AM 50.7031 161.4557 235° Southwest 449 517 41,000  Level FlightAware Transoceanic
03:49AM 50.6100 161.2345 234° Southwest 453 521 41,000  Level FlightAware Transoceanic
03:50AM 50.5367 161.0747 234° Southwest 453 521 41,000  Level FlightAware Transoceanic
03:51AM 50.4632 160.9155 234° Southwest 453 521 41,000  Level FlightAware Transoceanic
03:52AM 50.3895 160.7567 234° Southwest 453 521 41,000  Level FlightAware Transoceanic
03:53AM 50.3156 160.5985 234° Southwest 453 521 41,000  Level FlightAware Transoceanic
03:54AM 50.2415 160.4407 234° Southwest 453 521 41,000  Level FlightAware Transoceanic
03:55AM 50.1671 160.2834 233° Southwest 453 521 41,000  Level FlightAware Transoceanic
03:55AM 50.2000 160.3833 234° Southwest 457 526 41,000  Level Anchorage Center
03:56AM 50.0926 160.1266 233° Southwest 453 521 41,000  Level FlightAware Transoceanic
03:57AM 50.0178 159.9703 233° Southwest 453 521 41,000  Level FlightAware Transoceanic
03:58AM 49.9428 159.8145 233° Southwest 453 521 41,000  Level FlightAware Transoceanic
03:59AM 49.8677 159.6592 233° Southwest 453 521 41,000  Level FlightAware Transoceanic
04:00AM 49.7923 159.5044 233° Southwest 453 521 41,000  Level FlightAware Transoceanic
04:01AM 49.7167 159.3500 233° Southwest 457 526 41,000  Level FlightAware Transoceanic
04:02AM 49.6412 159.1959 233° Southwest 457 526 41,000  Level FlightAware Transoceanic
04:03AM 49.5655 159.0422 233° Southwest 457 526 41,000  Level FlightAware Transoceanic
04:04AM 49.4896 158.8891 233° Southwest 457 526 41,000  Level FlightAware Transoceanic
04:05AM 49.4135 158.7364 232° Southwest 457 526 41,000  Level FlightAware Transoceanic
04:06AM 49.3372 158.5841 232° Southwest 457 526 41,000  Level FlightAware Transoceanic
04:07AM 49.2607 158.4324 232° Southwest 457 526 41,000  Level FlightAware Transoceanic
04:08AM 49.1839 158.2811 232° Southwest 457 526 41,000  Level FlightAware Transoceanic
04:09AM 49.1070 158.1303 232° Southwest 457 526 41,000  Level FlightAware Transoceanic
04:10AM 49.0299 157.9799 232° Southwest 457 526 41,000  Level FlightAware Transoceanic
04:11AM 48.9527 157.8301 232° Southwest 457 526 41,000  Level FlightAware Transoceanic
04:12AM 48.8752 157.6806 232° Southwest 457 526 41,000  Level FlightAware Transoceanic
04:13AM 48.7975 157.5317 232° Southwest 457 526 41,000  Level FlightAware Transoceanic
04:14AM 48.7196 157.3832 231° Southwest 457 526 41,000  Level FlightAware Transoceanic
04:15AM 48.6416 157.2352 231° Southwest 457 526 41,000  Level FlightAware Transoceanic
04:16AM 48.5633 157.0876 231° Southwest 457 526 41,000  Level FlightAware Transoceanic
04:17AM 48.4849 156.9405 231° Southwest 457 526 41,000  Level FlightAware Transoceanic
04:18AM 48.4063 156.7938 231° Southwest 457 526 41,000  Level FlightAware Transoceanic
04:19AM 48.3274 156.6476 231° Southwest 457 526 41,000  Level FlightAware Transoceanic
04:20AM 48.2485 156.5019 231° Southwest 457 526 41,000  Level FlightAware Transoceanic
04:21AM 48.1693 156.3566 231° Southwest 457 526 41,000  Level FlightAware Transoceanic
04:22AM 48.0899 156.2117 231° Southwest 457 526 41,000  Level FlightAware Transoceanic
04:23AM 48.0104 156.0673 230° Southwest 457 526 41,000  Level FlightAware Transoceanic
04:24AM 47.9307 155.9233 230° Southwest 457 526 41,000  Level FlightAware Transoceanic
04:25AM 47.8508 155.7798 230° Southwest 457 526 41,000  Level FlightAware Transoceanic
04:26AM 47.7707 155.6367 230° Southwest 457 526 41,000  Level FlightAware Transoceanic
04:27AM 47.6904 155.4941 230° Southwest 457 526 41,000  Level FlightAware Transoceanic
04:28AM 47.6100 155.3519 230° Southwest 457 526 41,000  Level FlightAware Transoceanic
04:29AM 47.5294 155.2101 230° Southwest 457 526 41,000  Level FlightAware Transoceanic
04:30AM 47.4486 155.0688 230° Southwest 457 526 41,000  Level FlightAware Transoceanic
04:31AM 47.3676 154.9279 230° Southwest 457 526 41,000  Level FlightAware Transoceanic
04:32AM 47.2865 154.7874 230° Southwest 457 526 41,000  Level FlightAware Transoceanic
04:33AM 47.2052 154.6474 229° Southwest 457 526 41,000  Level FlightAware Transoceanic
04:34AM 47.1238 154.5078 229° Southwest 457 526 41,000  Level FlightAware Transoceanic
04:35AM 47.0421 154.3686 229° Southwest 457 526 41,000  Level FlightAware Transoceanic
04:36AM 46.9603 154.2299 229° Southwest 457 526 41,000  Level FlightAware Transoceanic
04:37AM 46.8783 154.0915 229° Southwest 457 526 41,000  Level FlightAware Transoceanic
04:38AM 46.7962 153.9536 229° Southwest 457 526 41,000  Level FlightAware Transoceanic
04:39AM 46.7139 153.8161 229° Southwest 457 526 41,000  Level FlightAware Transoceanic
04:40AM 46.6314 153.6791 229° Southwest 457 526 41,000  Level FlightAware Transoceanic
04:41AM 46.5488 153.5424 229° Southwest 457 526 41,000  Level FlightAware Transoceanic
04:42AM 46.4660 153.4062 229° Southwest 457 526 41,000  Level FlightAware Transoceanic
04:43AM 46.3831 153.2704 228° Southwest 457 526 41,000  Level FlightAware Transoceanic
04:44AM 46.2999 153.1350 228° Southwest 457 526 41,000  Level FlightAware Transoceanic
04:45AM 46.2190 153.0038 228° Southwest  Level FlightAware Approximate
04:46AM 46.1379 152.8730 228° Southwest  Level FlightAware Approximate
04:47AM 46.1398 152.8774 228° Southwest  Level FlightAware Approximate
04:48AM 46.0581 152.7476 228° Southwest  Level FlightAware Approximate
04:49AM 45.9762 152.6182 228° Southwest  Level FlightAware Approximate
04:50AM 45.8942 152.4892 228° Southwest  Level FlightAware Approximate
04:51AM 45.8121 152.3605 228° Southwest  Level FlightAware Approximate
04:52AM 45.7298 152.2323 227° Southwest  Level FlightAware Approximate
04:53AM 45.6473 152.1044 227° Southwest  Level FlightAware Approximate
04:54AM 45.5647 151.9769 227° Southwest  Level FlightAware Approximate
04:55AM 45.4820 151.8498 227° Southwest  Level FlightAware Approximate
04:56AM 45.3991 151.7230 227° Southwest  Level FlightAware Approximate
04:57AM 45.3161 151.5966 227° Southwest  Level FlightAware Approximate
04:58AM 45.2330 151.4706 227° Southwest  Level FlightAware Approximate
04:59AM 45.1497 151.3450 227° Southwest  Level FlightAware Approximate
05:00AM 45.0663 151.2197 227° Southwest  Level FlightAware Approximate
05:01AM 44.9827 151.0948 227° Southwest  Level FlightAware Approximate
05:02AM 44.8990 150.9702 227° Southwest  Level FlightAware Approximate
05:03AM 44.8152 150.8461 226° Southwest  Level FlightAware Approximate
05:04AM 44.7312 150.7222 226° Southwest  Level FlightAware Approximate
05:05AM 44.6471 150.5988 226° Southwest  Level FlightAware Approximate
05:06AM 44.5629 150.4756 226° Southwest  Level FlightAware Approximate
05:07AM 44.4785 150.3529 226° Southwest  Level FlightAware Approximate
05:08AM 44.3941 150.2305 226° Southwest  Level FlightAware Approximate
05:09AM 44.3094 150.1084 226° Southwest  Level FlightAware Approximate
05:10AM 44.2247 149.9868 226° Southwest  Level FlightAware Approximate
05:11AM 44.1398 149.8654 226° Southwest  Level FlightAware Approximate
05:12AM 44.0548 149.7444 226° Southwest  Level FlightAware Approximate
05:13AM 43.9697 149.6238 226° Southwest  Level FlightAware Approximate
05:14AM 43.8844 149.5035 226° Southwest  Level FlightAware Approximate
05:15AM 43.7990 149.3835 225° Southwest  Level FlightAware Approximate
05:16AM 43.7135 149.2639 225° Southwest  Level FlightAware Approximate
05:17AM 43.6278 149.1446 225° Southwest  Level FlightAware Approximate
05:18AM 43.5421 149.0257 225° Southwest  Level FlightAware Approximate
05:19AM 43.4562 148.9071 225° Southwest  Level FlightAware Approximate
05:20AM 43.3702 148.7888 225° Southwest  Level FlightAware Approximate
05:21AM 43.2841 148.6709 225° Southwest  Level FlightAware Approximate
05:22AM 43.1978 148.5533 225° Southwest  Level FlightAware Approximate
05:23AM 43.1115 148.4361 225° Southwest  Level FlightAware Approximate
05:24AM 43.0250 148.3191 225° Southwest  Level FlightAware Approximate
05:25AM 42.9384 148.2025 225° Southwest  Level FlightAware Approximate
05:26AM 42.8516 148.0863 225° Southwest  Level FlightAware Approximate
05:27AM 42.7648 147.9703 224° Southwest  Level FlightAware Approximate
05:28AM 42.6778 147.8547 224° Southwest  Level FlightAware Approximate
05:29AM 42.5908 147.7394 224° Southwest  Level FlightAware Approximate
05:30AM 42.5036 147.6244 224° Southwest  Level FlightAware Approximate
05:31AM 42.4162 147.5098 224° Southwest  Level FlightAware Approximate
05:32AM 42.3294 147.3947 225° Southwest  Level FlightAware Approximate
05:33AM 42.2427 147.2794 225° Southwest  Level FlightAware Approximate
05:34AM 42.1560 147.1645 224° Southwest  Level FlightAware Approximate
05:35AM 42.0691 147.0499 224° Southwest  Level FlightAware Approximate
05:36AM 41.9821 146.9356 224° Southwest  Level FlightAware Approximate
05:37AM 41.8943 146.8226 222° Southwest  Level FlightAware Approximate
05:38AM 41.8045 146.7126 222° Southwest  Level FlightAware Approximate
05:39AM 41.7146 146.6030 222° Southwest  Level FlightAware Approximate
05:40AM 41.6245 146.4936 222° Southwest  Level FlightAware Approximate
05:41AM 41.5344 146.3846 222° Southwest  Level FlightAware Approximate
05:42AM 41.4466 146.2723 224° Southwest  Level FlightAware Approximate
05:43AM 41.3588 146.1603 224° Southwest  Level FlightAware Approximate
05:44AM 41.2709 146.0485 224° Southwest  Level FlightAware Approximate
05:45AM 41.1828 145.9371 224° Southwest  Level FlightAware Approximate
05:46AM 41.0947 145.8258 224° Southwest  Level FlightAware Approximate
05:47AM 41.0066 145.7149 224° Southwest  Level FlightAware Approximate
05:48AM 40.9183 145.6042 223° Southwest  Level FlightAware Approximate
05:49AM 40.8299 145.4938 223° Southwest  Level FlightAware Approximate
05:50AM 40.7414 145.3837 223° Southwest  Level FlightAware Approximate
05:50AM 40.3460 144.8380 223° Southwest 418 481 41,000  Level FlightAware
05:51AM 40.6528 145.2740 223° Southwest  Level FlightAware Approximate
05:51AM 40.3060 144.7510 239° Southwest 413 475 41,000  Level FlightAware
05:51AM 40.2690 144.6710 239° Southwest 414 476 41,000  Level FlightAware
05:52AM 40.2380 144.6050 238° Southwest 414 476 41,000  Level FlightAware
05:53AM 40.2070 144.5370 239° Southwest 414 476 41,000  Level FlightAware
05:53AM 40.1770 144.4720 239° Southwest 414 476 41,000  Level FlightAware
05:54AM 40.1470 144.4060 239° Southwest 414 476 41,000  Level FlightAware
05:54AM 40.1170 144.3400 239° Southwest 414 476 41,000  Level FlightAware
05:55AM 40.0870 144.2750 239° Southwest 414 476 41,000  Level FlightAware
05:56AM 40.0560 144.2070 239° Southwest 414 476 41,000  Level FlightAware
05:56AM 40.0260 144.1430 239° Southwest 414 476 41,000  Level FlightAware
05:57AM 39.9950 144.0760 239° Southwest 414 476 41,000  Level FlightAware
05:57AM 39.9650 144.0100 239° Southwest 414 476 41,000  Level FlightAware
05:58AM 39.9350 143.9450 239° Southwest 414 476 41,000  Level FlightAware
06:01AM 39.7580 143.6258 238° Southwest  Level FlightAware Approximate
06:01AM 39.6700 143.4200 238° Southwest 41,000  Level FlightAware
06:02AM 39.6340 143.3450 238° Southwest 406 467 41,000  Level FlightAware
06:03AM 39.5930 143.2630 237° Southwest 406 467 41,000  Level FlightAware
06:03AM 39.5620 143.2000 237° Southwest 406 467 41,000  Level FlightAware
06:04AM 39.5270 143.1280 238° Southwest 408 470 41,000  Level FlightAware
06:04AM 39.4910 143.0550 237° Southwest 408 470 41,000  Level FlightAware
06:05AM 39.4550 142.9820 237° Southwest 410 472 41,000  Level FlightAware
06:05AM 39.4120 142.9140 231° Southwest 420 483 41,000  Level FlightAware
06:06AM 39.3660 142.8480 228° Southwest 420 483 41,000  Level FlightAware
06:07AM 39.3200 142.7820 228° Southwest 426 490 41,000  Level FlightAware
06:07AM 39.2720 142.7160 227° Southwest 426 490 41,000  Level FlightAware
06:08AM 39.2240 142.6480 228° Southwest 428 493 41,000  Level FlightAware
06:08AM 39.1710 142.5730 228° Southwest 430 495 41,000  Level FlightAware
06:09AM 39.1130 142.4910 228° Southwest 429 494 41,000  Level FlightAware
06:10AM 39.0680 142.4290 227° Southwest 427 491 41,000  Level FlightAware
06:10AM 39.0210 142.3630 228° Southwest 427 491 41,000  Level FlightAware
06:11AM 38.9720 142.2940 228° Southwest 428 493 41,000  Level FlightAware
06:11AM 38.9270 142.2320 227° Southwest 429 494 41,000  Level FlightAware
06:12AM 38.8780 142.1650 227° Southwest 427 491 41,000  Level FlightAware
06:13AM 38.8340 142.1040 227° Southwest 429 494 41,000  Level FlightAware
06:13AM 38.7870 142.0380 228° Southwest 429 494 41,000  Level FlightAware
06:14AM 38.7360 141.9680 227° Southwest 430 495 41,000  Level FlightAware
06:14AM 38.6890 141.9030 227° Southwest 431 496 41,000  Level FlightAware
06:15AM 38.6420 141.8390 227° Southwest 432 497 41,000  Level FlightAware
06:16AM 38.5930 141.7720 227° Southwest 433 498 41,000  Level FlightAware
06:16AM 38.5500 141.7120 228° Southwest 434 499 41,000  Level FlightAware
06:17AM 38.5000 141.6450 226° Southwest 435 501 41,000  Level FlightAware
06:17AM 38.4550 141.5830 227° Southwest 436 502 41,000  Level FlightAware
06:18AM 38.4030 141.5120 227° Southwest 434 499 41,000  Level FlightAware
06:18AM 38.3530 141.4450 226° Southwest 433 498 41,000  Level FlightAware
06:19AM 38.3070 141.3820 227° Southwest 434 499 41,000  Level FlightAware
06:20AM 38.2570 141.3170 226° Southwest 441 507 41,000  Level FlightAware
06:20AM 38.1960 141.2650 214° Southwest 462 532 41,000  Level FlightAware
06:21AM 38.1300 141.2220 207° Southwest 463 533 41,000  Level FlightAware
06:21AM 38.0630 141.1800 206° Southwest 463 533 41,000  Level FlightAware
06:22AM 37.9920 141.1340 207° Southwest 464 534 41,000  Level FlightAware
06:23AM 37.9220 141.0890 207° Southwest 462 532 41,000  Level FlightAware
06:23AM 37.8420 141.0380 207° Southwest 461 531 41,000  Level FlightAware
06:24AM 37.7850 141.0020 207° Southwest 460 529 41,000  Level FlightAware
06:24AM 37.7180 140.9590 207° Southwest 461 531 41,000  Level FlightAware
06:25AM 37.6570 140.9200 207° Southwest 462 532 41,000 -420 Level FlightAware
06:26AM 37.5750 140.8690 206° Southwest 460 529 40,500 -1,920 Descending FlightAware
06:26AM 37.5110 140.8280 207° Southwest 461 531 38,700 -3,360 Descending FlightAware
06:27AM 37.4430 140.7850 207° Southwest 465 535 36,700 -3,540 Descending FlightAware
06:27AM 37.3720 140.7410 206° Southwest 472 543 34,500 -3,720 Descending FlightAware
06:28AM 37.3020 140.6960 207° Southwest 481 554 32,300 -3,780 Descending FlightAware
06:29AM 37.2360 140.6550 206° Southwest 487 560 30,200 -3,360 Descending FlightAware
06:29AM 37.1630 140.6100 206° Southwest 484 557 28,500 -2,700 Descending FlightAware
06:30AM 37.0920 140.5660 206° Southwest 471 542 27,000 -2,520 Descending FlightAware
06:30AM 37.0300 140.5270 207° Southwest 458 527 25,700 -2,460 Descending FlightAware
06:31AM 36.9650 140.4860 207° Southwest 446 513 24,300 -2,520 Descending FlightAware
06:31AM 36.8960 140.4440 206° Southwest 434 499 22,700 -2,580 Descending FlightAware
06:32AM 36.8420 140.4100 207° Southwest 428 493 21,400 -2,580 Descending FlightAware
06:33AM 36.7780 140.3710 206° Southwest 422 486 19,800 -2,640 Descending FlightAware
06:33AM 36.7070 140.3430 198° South 420 483 18,200 -2,640 Descending FlightAware
06:34AM 36.6380 140.3290 189° South 410 472 16,600 -2,700 Descending FlightAware
06:34AM 36.5790 140.3160 190° South 399 459 15,200 -2,220 Descending FlightAware
06:35AM 36.5150 140.3040 189° South 389 448 14,100 -1,440 Descending FlightAware
06:36AM 36.4540 140.2920 189° South 367 422 13,500 -840 Descending FlightAware
06:36AM 36.3930 140.2800 189° South 356 410 13,100 -720 Descending FlightAware
06:37AM 36.3410 140.2710 188° South 357 411 12,700 -720 Descending FlightAware
06:37AM 36.2830 140.2630 186° South 339 390 12,300 -720 Descending FlightAware
06:38AM 36.2270 140.2540 187° South 324 373 11,900 -720 Descending FlightAware
06:38AM 36.1730 140.2450 188° South 335 386 11,500 -660 Descending FlightAware
06:39AM 36.1250 140.2370 188° South 338 389 11,200 -300 Descending FlightAware
06:40AM 36.0660 140.2270 188° South 333 383 11,200  Level FlightAware
06:40AM 36.0180 140.2190 188° South 339 390 11,200  Level FlightAware
06:41AM 35.9590 140.2100 187° South 344 396 11,200  Level FlightAware
06:41AM 35.9040 140.2010 188° South 338 389 11,200 -360 Level FlightAware
06:42AM 35.8540 140.1930 187° South 316 364 10,800 -900 Descending FlightAware
06:43AM 35.8030 140.1850 187° South 296 341 10,200 -1,080 Descending FlightAware
06:43AM 35.7740 140.1800 188° South 290 334 9,800 -1,200 Descending FlightAware
06:43AM 35.7480 140.1760 187° South 285 328 9,400 -1,080 Descending FlightAware
06:44AM 35.7220 140.1720 187° South 281 323 9,100 -960 Descending FlightAware
06:44AM 35.6920 140.1670 188° South 279 321 8,700 -1,140 Descending FlightAware
06:44AM 35.6650 140.1630 187° South 277 319 8,300 -1,140 Descending FlightAware
06:44AM 35.6500 140.1600 189° South 276 318 8,100 -1,020 Descending FlightAware
06:45AM 35.6200 140.1550 188° South 274 315 7,700 -960 Descending FlightAware
06:45AM 35.5960 140.1520 186° South 269 310 7,400 -960 Descending FlightAware
06:45AM 35.5790 140.1490 188° South 267 307 7,200 -1,020 Descending FlightAware
06:46AM 35.5510 140.1440 188° South 262 302 6,800 -960 Descending FlightAware
06:46AM 35.5270 140.1400 188° South 261 300 6,500 -1,080 Descending FlightAware
06:46AM 35.5040 140.1370 186° South 259 298 6,100 -1,020 Descending FlightAware
06:47AM 35.4770 140.1320 189° South 257 296 5,800 -1,020 Descending FlightAware
06:47AM 35.4440 140.1270 187° South 256 295 5,300 -1,020 Descending FlightAware
06:48AM 35.4140 140.1220 188° South 247 284 4,900 -1,080 Descending FlightAware
06:48AM 35.3900 140.1190 186° South 246 283 4,500 -960 Descending FlightAware
06:48AM 35.3650 140.1140 189° South 247 284 4,200 120 Descending FlightAware
06:49AM 35.3440 140.1110 187° South 241 277 4,600  Climbing FlightAware
06:49AM 35.3170 140.1070 187° South 229 264 4,200 -540 Descending FlightAware
06:50AM 35.3010 140.1000 200° South 219 252 4,200  Level FlightAware
06:50AM 35.2970 140.0970 211° Southwest 218 251 4,200  Level FlightAware
06:50AM 35.2780 140.0670 232° Southwest 223 257 4,200  Level FlightAware
06:50AM 35.2710 140.0510 242° Southwest 219 252 4,200  Level FlightAware
06:50AM 35.2700 140.0400 264° West 213 245 4,200  Level FlightAware
06:51AM 35.2750 140.0100 282° West 220 253 4,200  Level FlightAware
06:51AM 35.2830 139.9950 303° West 222 255 4,200  Level FlightAware
06:52AM 35.3010 139.9730 315° West 234 269 4,200  Level FlightAware
06:52AM 35.3310 139.9520 330° Northwest 235 270 4,200  Level FlightAware
06:53AM 35.3560 139.9350 331° Northwest 209 241 4,200  Level FlightAware
06:53AM 35.3640 139.9300 333° Northwest 202 232 4,200 -840 Level FlightAware
06:53AM 35.3850 139.9150 330° Northwest 205 236 3,700 -1,260 Descending FlightAware
06:53AM 35.4020 139.9030 330° Northwest 204 235 3,300 -1,200 Descending FlightAware
06:54AM 35.4200 139.8900 330° Northwest 200 230 2,900 -420 Descending FlightAware
06:54AM 35.4360 139.8790 331° Northwest 190 219 3,000 -300 Climbing FlightAware
06:54AM 35.4500 139.8690 330° Northwest 181 208 2,700 -1,500 Descending FlightAware
06:55AM 35.4650 139.8580 329° Northwest 174 200 2,000 -960 Descending FlightAware
06:55AM 35.4830 139.8460 332° Northwest 165 190 2,000 -1,080 Level FlightAware
06:55AM 35.4920 139.8390 328° Northwest 157 181 1,300 -1,500 Descending FlightAware
06:56AM 35.5060 139.8290 330° Northwest 136 157 1,000 -600 Descending FlightAware
06:56AM 35.5140 139.8230 329° Northwest 130 150 900 -540 Descending FlightAware
06:57AM 35.5240 139.8160 330° Northwest 129 148 700 -720 Descending FlightAware
06:57AM 35.5360 139.8080 332° Northwest 129 148 400 -660 Descending FlightAware
06:57AM 35.5500 139.7980 330° Northwest 132 152 200 -240 Descending FlightAware
06:58AM 35.5610 139.7890 326° Northwest 132 152 200  Level FlightAware